Archival Weather

Snohomish County (Paine Fld)

Everett, Washington (KPAE)

Report from: Tuesday, November 7, 2023 2:28 AM PST
Current time: Monday, June 17, 2024 12:06 AM PDT

Current weather – Weather history – Daily summaries
Weather forecast

Present weatherLight rain
Temperature10.0°C (50.0°F)
Wind chill8.2°C (46.7°F)
Dew point8.3°C (46.9°F)
Winds 7 kts (3.6 m/s, 8.1 mph) South-Southwest (210°)
Visibility8 mi. (12.9 km)
Clouds Scattered clouds 1,000 ft. (305 m)
Ceiling: Broken clouds 1,400 ft. (427 m)
Overcast 2,400 ft. (732 m)
Altimeter29.77 in.Hg (1008 mB)
Precipitiation0.01 in. (0 mm)
Relative humidity89 %
Density altitude-267 ft. (-81 m)
Remarks Fully automated report
Automated weather observing station with precipitation discriminator
Flight conditions Marginal Visual Meteorological Conditions
Raw dataKPAE 071028Z AUTO 21007KT 8SM -RA SCT010 BKN014 OVC024 10/08 A2977 RMK AO2 P0001 T01000083
An error has occurred. This application may no longer respond until reloaded. Reload 🗙